Time;durP1;ratioP1;P1;durP2;ratioP2;P2;SDS_P1;SDS_P2;PMS_P1;PMS_P2;Temp;Humidity;BMP_temperature;BMP_pressure;BME280_temperature;BME280_humidity;BME280_pressure;Samples;Min_cycle;Max_cycle;Signal;HPM_P1;HPM_P2
2023/03/14 00:01:14;;;;;;;10.25;5.10;;;;;;;;;;6214550;23;20406;-63
2023/03/14 00:03:41;;;;;;;9.33;4.13;;;;;;;;;;6214747;23;20012;-63
2023/03/14 00:06:07;;;;;;;9.95;5.38;;;;;;;;;;6214217;23;20383;-71
2023/03/14 00:08:33;;;;;;;10.20;5.60;;;;;;;;;;6214304;23;20014;-63
2023/03/14 00:11:04;;;;;;;9.75;5.53;;;;;;;;;;6214845;23;20060;-65
2023/03/14 00:13:30;;;;;;;9.98;5.25;;;;;;;;;;6214346;23;20379;-69
2023/03/14 00:16:02;;;;;;;9.63;5.22;;;;;;;;;;6214336;23;20424;-63
2023/03/14 00:18:28;;;;;;;10.75;5.35;;;;;;;;;;6214200;23;20000;-63
2023/03/14 00:20:54;;;;;;;9.45;5.63;;;;;;;;;;6213721;23;20016;-63
2023/03/14 00:23:20;;;;;;;10.82;5.70;;;;;;;;;;6214776;23;20020;-63
2023/03/14 00:25:46;;;;;;;11.80;6.07;;;;;;;;;;6214134;23;20007;-63
2023/03/14 00:28:12;;;;;;;11.48;5.80;;;;;;;;;;6213787;23;20362;-71
2023/03/14 00:30:38;;;;;;;10.30;5.70;;;;;;;;;;6213920;23;20035;-67
2023/03/14 00:33:04;;;;;;;8.57;5.00;;;;;;;;;;6213865;23;20487;-63
2023/03/14 00:35:30;;;;;;;9.70;5.57;;;;;;;;;;6213911;23;20009;-63
2023/03/14 00:37:56;;;;;;;10.48;5.20;;;;;;;;;;6213682;23;20000;-63
2023/03/14 00:40:22;;;;;;;9.00;5.20;;;;;;;;;;6213844;23;20028;-63
2023/03/14 00:42:48;;;;;;;9.70;5.18;;;;;;;;;;6213859;23;20008;-63
2023/03/14 00:45:15;;;;;;;11.18;6.35;;;;;;;;;;6213867;23;20005;-63
2023/03/14 00:47:45;;;;;;;11.38;5.90;;;;;;;;;;6214043;23;20027;-63
2023/03/14 00:50:11;;;;;;;10.43;5.95;;;;;;;;;;6213727;23;20074;-63
2023/03/14 00:52:37;;;;;;;11.20;6.28;;;;;;;;;;6213912;23;20008;-63
2023/03/14 00:55:03;;;;;;;13.57;6.90;;;;;;;;;;6213957;23;20004;-63
2023/03/14 00:57:29;;;;;;;13.20;7.15;;;;;;;;;;6213863;23;20009;-62
2023/03/14 00:59:56;;;;;;;15.18;7.78;;;;;;;;;;6213810;23;20086;-64
2023/03/14 01:02:22;;;;;;;13.13;8.20;;;;;;;;;;6213777;23;20017;-62
2023/03/14 01:04:48;;;;;;;16.17;7.93;;;;;;;;;;6213920;23;20031;-62
2023/03/14 01:07:14;;;;;;;13.57;8.10;;;;;;;;;;6213817;23;20012;-63
2023/03/14 01:09:40;;;;;;;13.13;7.50;;;;;;;;;;6213249;23;20092;-62
2023/03/14 01:12:06;;;;;;;15.18;7.90;;;;;;;;;;6213502;23;20028;-63
2023/03/14 01:14:32;;;;;;;14.50;7.22;;;;;;;;;;6213635;23;20008;-62
2023/03/14 01:17:00;;;;;;;14.73;7.63;;;;;;;;;;6213814;23;20050;-71
2023/03/14 01:19:27;;;;;;;12.38;6.88;;;;;;;;;;6213191;23;20009;-62
2023/03/14 01:21:54;;;;;;;11.07;6.70;;;;;;;;;;6213559;23;20005;-63
2023/03/14 01:24:20;;;;;;;10.18;5.88;;;;;;;;;;6213546;23;20027;-62
2023/03/14 01:26:46;;;;;;;11.52;6.20;;;;;;;;;;6213620;23;20000;-68
2023/03/14 01:29:13;;;;;;;14.05;6.03;;;;;;;;;;6213009;23;20013;-63
2023/03/14 01:31:39;;;;;;;10.52;5.47;;;;;;;;;;6213562;23;20333;-63
2023/03/14 01:34:05;;;;;;;12.20;5.20;;;;;;;;;;6213678;23;20008;-63
2023/03/14 01:36:31;;;;;;;9.45;5.03;;;;;;;;;;6213802;23;20000;-63
2023/03/14 01:38:57;;;;;;;12.13;5.18;;;;;;;;;;6213527;23;20083;-63
2023/03/14 01:41:24;;;;;;;8.68;4.93;;;;;;;;;;6213099;23;20000;-63
2023/03/14 01:43:50;;;;;;;12.18;5.32;;;;;;;;;;6213382;23;20023;-63
2023/03/14 01:46:25;;;;;;;10.07;4.90;;;;;;;;;;6213475;23;20055;-62
2023/03/14 01:48:54;;;;;;;10.40;5.25;;;;;;;;;;6213187;23;20083;-63
2023/03/14 01:51:42;;;;;;;13.88;4.97;;;;;;;;;;6213292;23;20050;-67
2023/03/14 01:54:17;;;;;;;10.18;5.10;;;;;;;;;;6213277;23;20008;-71
2023/03/14 01:56:45;;;;;;;9.60;4.93;;;;;;;;;;6213504;23;20000;-63
2023/03/14 01:59:12;;;;;;;9.35;5.20;;;;;;;;;;6212770;23;20000;-63
2023/03/14 02:01:39;;;;;;;10.40;5.07;;;;;;;;;;6213521;23;20329;-63
2023/03/14 02:04:06;;;;;;;10.05;4.80;;;;;;;;;;6213331;23;20007;-63
2023/03/14 02:06:45;;;;;;;10.13;5.03;;;;;;;;;;6213495;23;20031;-62
2023/03/14 02:09:11;;;;;;;12.35;4.82;;;;;;;;;;6212824;23;20664;-62
2023/03/14 02:11:37;;;;;;;10.82;5.22;;;;;;;;;;6212846;23;20035;-63
2023/03/14 02:14:04;;;;;;;11.15;5.40;;;;;;;;;;6212794;23;20001;-63
2023/03/14 02:16:30;;;;;;;10.52;4.68;;;;;;;;;;6213129;23;20028;-63
2023/03/14 02:18:56;;;;;;;11.75;5.15;;;;;;;;;;6212805;23;20008;-62
2023/03/14 02:21:38;;;;;;;10.10;4.90;;;;;;;;;;6212818;23;20016;-66
2023/03/14 02:24:17;;;;;;;11.50;5.05;;;;;;;;;;6212919;23;20000;-62
2023/03/14 02:27:03;;;;;;;8.98;4.50;;;;;;;;;;6213011;23;20008;-62
2023/03/14 02:29:29;;;;;;;10.52;5.32;;;;;;;;;;6212426;23;20024;-62
2023/03/14 02:31:55;;;;;;;10.50;5.47;;;;;;;;;;6212893;23;20009;-66
2023/03/14 02:34:21;;;;;;;9.40;4.93;;;;;;;;;;6212621;23;20004;-62
2023/03/14 02:36:47;;;;;;;12.73;5.63;;;;;;;;;;6213104;23;20011;-62
2023/03/14 02:39:22;;;;;;;12.10;5.47;;;;;;;;;;6185832;23;20476;-62
2023/03/14 02:41:49;;;;;;;10.85;5.00;;;;;;;;;;6213039;23;19997;-62
2023/03/14 02:44:15;;;;;;;12.45;5.60;;;;;;;;;;6212780;23;20011;-63
2023/03/14 02:46:41;;;;;;;9.30;5.40;;;;;;;;;;6213609;23;20000;-70
2023/03/14 02:49:11;;;;;;;9.23;4.82;;;;;;;;;;6212687;23;20019;-61
2023/03/14 02:51:38;;;;;;;11.27;4.95;;;;;;;;;;6212848;23;19996;-61
2023/03/14 02:54:04;;;;;;;9.80;5.47;;;;;;;;;;6212789;23;20005;-61
2023/03/14 02:56:30;;;;;;;8.20;5.05;;;;;;;;;;6213179;23;20033;-61
2023/03/14 02:58:57;;;;;;;9.93;5.13;;;;;;;;;;6212451;23;20024;-63
2023/03/14 03:01:23;;;;;;;9.77;5.05;;;;;;;;;;6213683;23;20315;-63
2023/03/14 03:03:50;;;;;;;10.65;5.30;;;;;;;;;;6215133;23;20378;-62
2023/03/14 03:06:16;;;;;;;9.35;4.97;;;;;;;;;;6213608;23;20004;-63
2023/03/14 03:08:42;;;;;;;11.23;5.35;;;;;;;;;;6212304;23;20016;-61
2023/03/14 03:11:08;;;;;;;9.00;5.15;;;;;;;;;;6212966;23;19997;-61
2023/03/14 03:13:34;;;;;;;10.15;4.75;;;;;;;;;;6212363;23;20036;-69
2023/03/14 03:16:00;;;;;;;9.60;5.13;;;;;;;;;;6212636;23;20007;-62
2023/03/14 03:18:26;;;;;;;11.00;5.32;;;;;;;;;;6212749;23;20032;-63
2023/03/14 03:20:53;;;;;;;9.95;5.03;;;;;;;;;;6212445;23;20094;-62
2023/03/14 03:23:19;;;;;;;9.68;5.20;;;;;;;;;;6212692;23;20086;-63
2023/03/14 03:25:51;;;;;;;13.20;5.60;;;;;;;;;;6213386;23;20414;-62
2023/03/14 03:28:17;;;;;;;11.52;5.78;;;;;;;;;;6214294;23;20015;-63
2023/03/14 03:30:43;;;;;;;11.25;5.05;;;;;;;;;;6214620;23;20035;-63
2023/03/14 03:33:09;;;;;;;11.27;4.72;;;;;;;;;;6214729;23;20012;-63
2023/03/14 03:35:36;;;;;;;9.13;4.85;;;;;;;;;;6215040;23;20015;-62
2023/03/14 03:38:02;;;;;;;10.70;5.28;;;;;;;;;;6214447;23;20007;-63
2023/03/14 03:40:28;;;;;;;15.80;5.68;;;;;;;;;;6213919;23;20027;-65
2023/03/14 03:42:54;;;;;;;11.73;5.53;;;;;;;;;;6214158;23;20006;-66
2023/03/14 03:45:20;;;;;;;14.38;5.38;;;;;;;;;;6214388;23;20171;-62
2023/03/14 03:47:46;;;;;;;12.32;5.65;;;;;;;;;;6214663;23;20004;-71
2023/03/14 03:50:12;;;;;;;11.20;5.50;;;;;;;;;;6214206;23;20012;-63
2023/03/14 03:52:38;;;;;;;11.32;5.25;;;;;;;;;;6214406;23;20076;-63
2023/03/14 03:55:04;;;;;;;10.88;5.38;;;;;;;;;;6214203;23;20055;-62
2023/03/14 03:57:30;;;;;;;12.07;5.10;;;;;;;;;;6214406;23;20011;-62
2023/03/14 03:59:56;;;;;;;12.23;5.60;;;;;;;;;;6214286;23;20071;-62
2023/03/14 04:02:22;;;;;;;14.73;5.80;;;;;;;;;;6214294;23;20036;-63
2023/03/14 04:04:48;;;;;;;14.55;5.95;;;;;;;;;;6214410;23;20444;-63
2023/03/14 04:07:14;;;;;;;13.25;5.25;;;;;;;;;;6214471;23;20333;-62
2023/03/14 04:09:40;;;;;;;9.38;5.13;;;;;;;;;;6213681;23;20666;-62
2023/03/14 04:12:06;;;;;;;11.77;5.65;;;;;;;;;;6214140;23;20310;-67
2023/03/14 04:14:32;;;;;;;16.15;6.05;;;;;;;;;;6214192;23;20000;-62
2023/03/14 04:16:58;;;;;;;12.20;6.25;;;;;;;;;;6214632;23;20000;-63
2023/03/14 04:19:25;;;;;;;15.02;5.97;;;;;;;;;;6214339;23;20076;-62
2023/03/14 04:21:51;;;;;;;12.68;6.05;;;;;;;;;;6214068;23;20005;-63
2023/03/14 04:24:17;;;;;;;12.40;5.40;;;;;;;;;;6214299;23;20001;-62
2023/03/14 04:26:43;;;;;;;12.15;5.63;;;;;;;;;;6214405;23;20004;-63
2023/03/14 04:29:09;;;;;;;12.18;5.57;;;;;;;;;;6213672;23;20017;-63
2023/03/14 04:31:35;;;;;;;10.98;5.50;;;;;;;;;;6214490;23;20001;-63
2023/03/14 04:34:01;;;;;;;13.13;5.60;;;;;;;;;;6214156;23;20426;-62
2023/03/14 04:36:27;;;;;;;9.65;5.30;;;;;;;;;;6214212;23;20051;-62
2023/03/14 04:38:53;;;;;;;13.63;6.47;;;;;;;;;;6213899;23;19996;-62
2023/03/14 04:41:19;;;;;;;12.10;6.03;;;;;;;;;;6213976;23;20080;-62
2023/03/14 04:43:45;;;;;;;9.93;5.50;;;;;;;;;;6213892;23;20369;-62
2023/03/14 04:46:11;;;;;;;10.82;5.63;;;;;;;;;;6214048;23;20008;-62
2023/03/14 04:48:38;;;;;;;13.50;5.43;;;;;;;;;;6213910;23;20015;-62
2023/03/14 04:51:04;;;;;;;11.38;6.03;;;;;;;;;;6186611;23;20011;-62
2023/03/14 04:53:30;;;;;;;13.50;6.07;;;;;;;;;;6213949;23;20005;-62
2023/03/14 04:55:56;;;;;;;10.65;5.30;;;;;;;;;;6213605;23;20001;-62
2023/03/14 04:58:23;;;;;;;11.38;5.72;;;;;;;;;;6213730;23;20030;-63
2023/03/14 05:00:50;;;;;;;11.68;5.82;;;;;;;;;;6213482;23;20075;-63
2023/03/14 05:03:16;;;;;;;14.35;5.80;;;;;;;;;;6214024;23;20012;-64
2023/03/14 05:05:42;;;;;;;11.73;5.60;;;;;;;;;;6214026;23;20000;-62
2023/03/14 05:08:09;;;;;;;13.32;5.45;;;;;;;;;;6213540;23;20004;-62
2023/03/14 05:10:35;;;;;;;12.70;6.00;;;;;;;;;;6213838;23;20012;-63
2023/03/14 05:13:01;;;;;;;14.50;6.00;;;;;;;;;;6213761;23;20062;-62
2023/03/14 05:15:27;;;;;;;11.82;5.78;;;;;;;;;;6213737;23;20101;-62
2023/03/14 05:17:54;;;;;;;11.15;5.40;;;;;;;;;;6213551;23;20051;-63
2023/03/14 05:20:20;;;;;;;14.25;6.75;;;;;;;;;;6213142;23;20020;-62
2023/03/14 05:22:47;;;;;;;15.10;7.05;;;;;;;;;;6213948;23;20020;-63
2023/03/14 05:25:13;;;;;;;16.38;6.60;;;;;;;;;;6213604;23;20008;-66
2023/03/14 05:27:39;;;;;;;16.30;6.75;;;;;;;;;;6213524;23;20036;-62
2023/03/14 05:30:06;;;;;;;14.93;6.10;;;;;;;;;;6213224;23;20092;-63
2023/03/14 05:32:32;;;;;;;15.85;6.80;;;;;;;;;;6213257;23;20818;-62
2023/03/14 05:34:59;;;;;;;12.55;6.47;;;;;;;;;;6213617;23;20015;-63
2023/03/14 05:37:28;;;;;;;12.27;6.43;;;;;;;;;;6213575;23;20007;-62
2023/03/14 05:39:54;;;;;;;12.05;6.20;;;;;;;;;;6213173;23;20004;-62
2023/03/14 05:42:20;;;;;;;12.70;6.22;;;;;;;;;;6213383;23;20384;-70
2023/03/14 05:44:46;;;;;;;16.65;7.07;;;;;;;;;;6213581;23;20008;-63
2023/03/14 05:47:12;;;;;;;24.85;7.57;;;;;;;;;;6213463;23;20445;-62
2023/03/14 05:49:39;;;;;;;14.90;6.22;;;;;;;;;;6212676;23;20086;-69
2023/03/14 05:52:05;;;;;;;12.00;5.95;;;;;;;;;;6212831;23;20031;-71
2023/03/14 05:54:31;;;;;;;13.95;6.40;;;;;;;;;;6212921;23;20011;-62
2023/03/14 05:56:57;;;;;;;14.50;6.45;;;;;;;;;;6213408;23;20044;-63
2023/03/14 05:59:23;;;;;;;14.93;7.00;;;;;;;;;;6212714;23;20004;-62
2023/03/14 06:01:49;;;;;;;12.70;6.85;;;;;;;;;;6213323;23;20110;-71
2023/03/14 06:04:15;;;;;;;16.35;7.18;;;;;;;;;;6213059;23;20495;-62
2023/03/14 06:06:41;;;;;;;16.60;7.65;;;;;;;;;;6213578;23;20472;-62
2023/03/14 06:09:07;;;;;;;15.30;8.15;;;;;;;;;;6213363;23;20017;-62
2023/03/14 06:11:33;;;;;;;19.17;8.00;;;;;;;;;;6213043;23;20452;-62
2023/03/14 06:13:59;;;;;;;15.55;7.38;;;;;;;;;;6212869;23;20004;-64
2023/03/14 06:16:25;;;;;;;20.52;7.70;;;;;;;;;;6213019;23;20036;-71
2023/03/14 06:18:52;;;;;;;15.35;6.40;;;;;;;;;;6213063;23;20020;-63
2023/03/14 06:21:18;;;;;;;14.70;6.57;;;;;;;;;;6212858;23;20008;-62
2023/03/14 06:23:44;;;;;;;18.13;6.55;;;;;;;;;;6212859;23;20008;-62
2023/03/14 06:26:11;;;;;;;16.25;7.20;;;;;;;;;;6213200;23;20000;-69
2023/03/14 06:28:37;;;;;;;19.05;8.38;;;;;;;;;;6212296;23;20001;-63
2023/03/14 06:31:04;;;;;;;22.85;8.73;;;;;;;;;;6212718;23;20009;-63
2023/03/14 06:33:30;;;;;;;17.35;7.72;;;;;;;;;;6212734;23;20013;-62
2023/03/14 06:35:56;;;;;;;15.18;7.95;;;;;;;;;;6212992;23;20008;-62
2023/03/14 06:38:22;;;;;;;16.40;7.18;;;;;;;;;;6212710;23;20440;-67
2023/03/14 06:40:48;;;;;;;13.15;6.18;;;;;;;;;;6212608;23;20004;-61
2023/03/14 06:43:14;;;;;;;13.60;6.28;;;;;;;;;;6212704;23;20005;-64
2023/03/14 06:45:40;;;;;;;12.40;6.28;;;;;;;;;;6212611;23;20004;-62
2023/03/14 06:48:06;;;;;;;12.68;5.68;;;;;;;;;;6212991;23;20101;-67
2023/03/14 06:50:32;;;;;;;12.73;6.00;;;;;;;;;;6212541;23;20009;-61
2023/03/14 06:52:58;;;;;;;13.77;6.03;;;;;;;;;;6212640;23;20080;-69
2023/03/14 06:55:24;;;;;;;14.40;6.70;;;;;;;;;;6212719;23;20009;-61
2023/03/14 06:57:50;;;;;;;14.65;6.30;;;;;;;;;;6212592;23;20445;-62
2023/03/14 07:00:16;;;;;;;15.70;7.15;;;;;;;;;;6212243;23;20015;-62
2023/03/14 07:02:42;;;;;;;14.20;7.25;;;;;;;;;;6212139;23;20111;-75
2023/03/14 07:05:10;;;;;;;17.95;7.60;;;;;;;;;;6212808;23;20000;-65
2023/03/14 07:07:36;;;;;;;17.77;7.30;;;;;;;;;;6212569;23;20005;-61
2023/03/14 07:10:02;;;;;;;17.40;7.03;;;;;;;;;;6212402;23;20409;-61
2023/03/14 07:12:28;;;;;;;16.70;7.60;;;;;;;;;;6212000;23;20008;-60
2023/03/14 07:14:54;;;;;;;16.38;8.38;;;;;;;;;;6212335;23;20062;-61
2023/03/14 07:17:20;;;;;;;15.20;7.40;;;;;;;;;;6212511;23;20050;-60
2023/03/14 07:19:46;;;;;;;19.08;7.25;;;;;;;;;;6211890;23;20353;-60
2023/03/14 07:22:12;;;;;;;16.77;7.13;;;;;;;;;;6212682;23;20028;-60
2023/03/14 07:24:38;;;;;;;14.98;6.93;;;;;;;;;;6212676;23;20009;-60
2023/03/14 07:27:04;;;;;;;17.88;6.80;;;;;;;;;;6212716;23;20008;-61
2023/03/14 07:29:30;;;;;;;19.05;6.20;;;;;;;;;;6212128;23;20118;-65
2023/03/14 07:31:56;;;;;;;12.90;7.22;;;;;;;;;;6212418;23;20444;-61
2023/03/14 07:34:22;;;;;;;13.82;6.93;;;;;;;;;;6212718;23;20023;-60
2023/03/14 07:36:48;;;;;;;16.88;6.20;;;;;;;;;;6212554;23;20000;-61
2023/03/14 07:39:14;;;;;;;11.68;5.93;;;;;;;;;;6212404;23;20004;-60
2023/03/14 07:41:40;;;;;;;10.98;5.97;;;;;;;;;;6185407;23;20004;-60
2023/03/14 07:44:07;;;;;;;11.88;5.80;;;;;;;;;;6212583;23;20008;-60
2023/03/14 07:46:33;;;;;;;15.65;6.40;;;;;;;;;;6212581;23;20328;-63
2023/03/14 07:48:59;;;;;;;15.23;5.85;;;;;;;;;;6212498;23;20016;-61
2023/03/14 07:51:25;;;;;;;14.18;6.57;;;;;;;;;;6212644;23;20001;-64
2023/03/14 07:53:51;;;;;;;14.07;5.72;;;;;;;;;;6212546;23;20091;-63
2023/03/14 07:56:17;;;;;;;11.93;5.45;;;;;;;;;;6212565;23;20005;-61
2023/03/14 07:58:43;;;;;;;14.20;5.88;;;;;;;;;;6212113;23;20083;-60
2023/03/14 08:01:09;;;;;;;12.23;4.95;;;;;;;;;;6212308;23;20325;-60
2023/03/14 08:03:35;;;;;;;12.60;5.53;;;;;;;;;;6212497;23;20084;-59
2023/03/14 08:06:01;;;;;;;13.40;5.47;;;;;;;;;;6212494;23;20040;-61
2023/03/14 08:08:27;;;;;;;9.98;4.25;;;;;;;;;;6211755;23;20059;-68
2023/03/14 08:10:53;;;;;;;11.73;5.30;;;;;;;;;;6210696;23;20004;-61
2023/03/14 08:13:21;;;;;;;10.02;4.55;;;;;;;;;;6212143;23;20732;-61
2023/03/14 08:15:49;;;;;;;11.35;5.03;;;;;;;;;;6212820;23;20007;-61
2023/03/14 08:18:15;;;;;;;13.50;4.43;;;;;;;;;;6213159;23;20429;-60
2023/03/14 08:20:41;;;;;;;11.48;5.05;;;;;;;;;;6212635;23;20020;-60
2023/03/14 08:23:07;;;;;;;9.32;4.60;;;;;;;;;;6212997;23;20026;-61
2023/03/14 08:25:33;;;;;;;13.57;5.47;;;;;;;;;;6212991;23;20053;-61
2023/03/14 08:27:59;;;;;;;14.32;5.45;;;;;;;;;;6212663;23;20055;-69
2023/03/14 08:30:26;;;;;;;17.90;5.90;;;;;;;;;;6212488;23;20120;-71
2023/03/14 08:32:52;;;;;;;15.70;5.72;;;;;;;;;;6212515;23;20076;-73
2023/03/14 08:35:18;;;;;;;17.67;5.75;;;;;;;;;;6212688;23;20008;-62
2023/03/14 08:37:44;;;;;;;19.35;6.63;;;;;;;;;;6212557;23;20004;-72
2023/03/14 08:40:11;;;;;;;13.90;5.55;;;;;;;;;;6212353;23;20123;-61
2023/03/14 08:42:38;;;;;;;12.52;5.38;;;;;;;;;;6212814;23;20004;-61
2023/03/14 08:45:04;;;;;;;11.35;5.10;;;;;;;;;;6213107;23;20294;-60
2023/03/14 08:47:30;;;;;;;12.40;4.93;;;;;;;;;;6212587;23;20012;-67
2023/03/14 08:49:56;;;;;;;10.07;4.78;;;;;;;;;;6212690;23;20040;-60
2023/03/14 08:52:22;;;;;;;10.18;4.75;;;;;;;;;;6212490;23;20000;-60
2023/03/14 08:54:48;;;;;;;11.82;5.45;;;;;;;;;;6212482;23;20004;-61
2023/03/14 08:57:14;;;;;;;9.05;4.90;;;;;;;;;;6213066;23;19997;-60
2023/03/14 08:59:40;;;;;;;9.95;4.80;;;;;;;;;;6212451;23;20429;-60
2023/03/14 09:02:07;;;;;;;10.23;4.80;;;;;;;;;;6212523;23;20008;-60
2023/03/14 09:04:33;;;;;;;14.00;5.13;;;;;;;;;;6213535;23;20635;-61
2023/03/14 09:07:00;;;;;;;11.85;4.85;;;;;;;;;;6213926;23;20004;-62
2023/03/14 09:09:30;;;;;;;11.93;4.80;;;;;;;;;;6213119;23;20013;-61
2023/03/14 09:11:56;;;;;;;10.77;4.78;;;;;;;;;;6213330;23;20001;-60
2023/03/14 09:14:22;;;;;;;13.43;5.43;;;;;;;;;;6212876;23;20012;-61
2023/03/14 09:16:48;;;;;;;10.45;5.22;;;;;;;;;;6212911;23;20023;-60
2023/03/14 09:19:14;;;;;;;15.75;5.68;;;;;;;;;;6212590;23;20016;-60
2023/03/14 09:21:40;;;;;;;9.23;4.50;;;;;;;;;;6213179;23;20020;-60
2023/03/14 09:24:06;;;;;;;10.80;4.78;;;;;;;;;;6213391;23;20444;-60
2023/03/14 09:26:32;;;;;;;13.13;5.20;;;;;;;;;;6213713;23;20381;-61
2023/03/14 09:28:58;;;;;;;9.88;5.18;;;;;;;;;;6212553;23;20017;-64
2023/03/14 09:31:24;;;;;;;11.77;5.03;;;;;;;;;;6212492;23;20088;-60
2023/03/14 09:33:50;;;;;;;12.18;4.78;;;;;;;;;;6213335;23;20015;-70
2023/03/14 09:36:16;;;;;;;13.38;5.18;;;;;;;;;;6213091;23;20005;-60
2023/03/14 09:38:42;;;;;;;12.00;5.03;;;;;;;;;;6184772;23;20431;-60
2023/03/14 09:41:21;;;;;;;11.82;5.00;;;;;;;;;;6212486;23;20016;-70
2023/03/14 09:43:50;;;;;;;12.77;4.60;;;;;;;;;;6212125;23;20009;-64
2023/03/14 09:46:17;;;;;;;12.38;4.80;;;;;;;;;;6212433;23;20000;-60
2023/03/14 09:48:43;;;;;;;10.27;5.38;;;;;;;;;;6212807;23;20008;-69
2023/03/14 09:51:17;;;;;;;9.43;4.28;;;;;;;;;;6213000;23;20083;-62
2023/03/14 09:53:45;;;;;;;8.57;4.63;;;;;;;;;;6212757;23;20079;-70
2023/03/14 09:56:22;;;;;;;9.88;4.47;;;;;;;;;;6212735;23;20059;-63
2023/03/14 09:58:53;;;;;;;7.18;4.32;;;;;;;;;;6211670;23;20032;-64
2023/03/14 10:01:22;;;;;;;8.03;4.03;;;;;;;;;;6213123;23;20009;-62
2023/03/14 10:03:49;;;;;;;11.05;4.60;;;;;;;;;;6186006;23;20625;-61
2023/03/14 10:06:15;;;;;;;12.05;4.65;;;;;;;;;;6213358;23;20372;-63
2023/03/14 10:08:42;;;;;;;9.43;5.15;;;;;;;;;;6213067;23;20043;-59
2023/03/14 10:11:14;;;;;;;8.10;4.88;;;;;;;;;;6210771;23;20011;-61
2023/03/14 10:13:50;;;;;;;8.13;4.40;;;;;;;;;;6212019;23;20009;-62
2023/03/14 10:16:16;;;;;;;9.65;4.03;;;;;;;;;;6212872;23;20008;-67
2023/03/14 10:18:45;;;;;;;8.27;4.07;;;;;;;;;;6212308;23;20070;-64
2023/03/14 10:21:30;;;;;;;10.30;4.05;;;;;;;;;;6212736;23;20392;-65
2023/03/14 10:24:08;;;;;;;8.30;4.30;;;;;;;;;;6213215;23;20040;-68
2023/03/14 10:26:35;;;;;;;6.60;4.20;;;;;;;;;;6212967;23;20004;-61
2023/03/14 10:29:03;;;;;;;6.65;4.03;;;;;;;;;;6212648;23;20134;-71
2023/03/14 10:31:46;;;;;;;12.32;4.70;;;;;;;;;;6212275;23;20001;-68
2023/03/14 10:34:15;;;;;;;7.22;4.28;;;;;;;;;;6212862;23;20388;-65
2023/03/14 10:36:41;;;;;;;10.50;4.70;;;;;;;;;;6212615;23;20035;-61
2023/03/14 10:39:17;;;;;;;8.93;5.15;;;;;;;;;;6212451;23;20031;-61
2023/03/14 10:41:47;;;;;;;11.18;5.05;;;;;;;;;;6212813;23;20427;-70
2023/03/14 10:44:14;;;;;;;8.98;4.28;;;;;;;;;;6212642;23;20051;-72
2023/03/14 10:46:40;;;;;;;10.18;4.35;;;;;;;;;;6210917;23;20009;-66
2023/03/14 10:49:06;;;;;;;9.52;3.85;;;;;;;;;;6211816;23;20017;-72
2023/03/14 10:51:32;;;;;;;10.45;4.13;;;;;;;;;;6211252;23;20000;-62
2023/03/14 10:54:01;;;;;;;8.32;3.53;;;;;;;;;;6211679;23;20092;-68
2023/03/14 10:56:28;;;;;;;32.55;15.68;;;;;;;;;;6211271;23;20086;-62
2023/03/14 10:58:56;;;;;;;6.95;3.60;;;;;;;;;;6211591;23;20011;-62
2023/03/14 11:01:32;;;;;;;15.55;7.53;;;;;;;;;;6210902;23;20043;-68
2023/03/14 11:04:20;;;;;;;10.15;5.40;;;;;;;;;;6211037;23;20306;-68
2023/03/14 11:06:56;;;;;;;10.05;4.90;;;;;;;;;;6211074;23;20008;-70
2023/03/14 11:09:57;;;;;;;16.23;8.30;;;;;;;;;;6211076;23;20012;-61
2023/03/14 11:12:42;;;;;;;10.98;5.30;;;;;;;;;;6148825;23;20056;-61
2023/03/14 11:15:17;;;;;;;18.70;9.05;;;;;;;;;;6148750;23;20453;-71
2023/03/14 11:17:52;;;;;;;11.65;5.13;;;;;;;;;;6148514;23;20016;-68
2023/03/14 11:20:33;;;;;;;12.27;5.07;;;;;;;;;;6163015;23;20028;-66
2023/03/14 11:23:08;;;;;;;10.95;5.10;;;;;;;;;;6178320;23;20013;-62
2023/03/14 11:25:37;;;;;;;7.70;4.15;;;;;;;;;;6178241;23;20059;-61
2023/03/14 11:28:03;;;;;;;21.67;10.35;;;;;;;;;;6178217;23;20009;-70
2023/03/14 11:30:29;;;;;;;12.32;5.60;;;;;;;;;;6177828;23;20059;-61
2023/03/14 11:33:03;;;;;;;40.35;15.60;;;;;;;;;;6178229;23;20404;-61
2023/03/14 11:35:36;;;;;;;10.95;5.35;;;;;;;;;;6178335;23;20017;-64
2023/03/14 11:38:10;;;;;;;13.00;4.60;;;;;;;;;;6178837;23;20028;-61
2023/03/14 11:40:38;;;;;;;7.97;4.38;;;;;;;;;;6177764;23;20075;-68
2023/03/14 11:43:10;;;;;;;14.13;8.68;;;;;;;;;;6178844;23;20496;-61
2023/03/14 11:45:37;;;;;;;7.63;4.00;;;;;;;;;;6184343;23;20032;-60
2023/03/14 11:48:22;;;;;;;8.15;4.55;;;;;;;;;;6211846;23;20055;-60
2023/03/14 11:50:51;;;;;;;9.95;4.82;;;;;;;;;;6213538;23;20008;-70
2023/03/14 11:53:20;;;;;;;13.80;4.28;;;;;;;;;;6213107;23;20005;-61
2023/03/14 11:55:46;;;;;;;7.20;3.75;;;;;;;;;;6213825;23;20009;-64
2023/03/14 11:58:18;;;;;;;13.13;5.85;;;;;;;;;;6213774;23;20012;-60
2023/03/14 12:00:45;;;;;;;12.48;4.90;;;;;;;;;;6214128;23;20054;-62
2023/03/14 12:03:30;;;;;;;10.10;4.55;;;;;;;;;;6214264;23;20400;-68
2023/03/14 12:06:06;;;;;;;8.75;4.20;;;;;;;;;;6213228;23;20337;-61
2023/03/14 12:08:38;;;;;;;7.15;3.67;;;;;;;;;;6212793;23;20019;-68
2023/03/14 12:11:22;;;;;;;10.85;4.20;;;;;;;;;;6212668;23;20086;-60
2023/03/14 12:13:50;;;;;;;7.72;3.67;;;;;;;;;;6212625;23;20031;-64
2023/03/14 12:16:22;;;;;;;10.23;4.82;;;;;;;;;;6212302;23;20088;-70
2023/03/14 12:18:49;;;;;;;8.75;3.53;;;;;;;;;;6212789;23;20012;-60
2023/03/14 12:21:15;;;;;;;10.75;4.03;;;;;;;;;;6212964;23;20059;-69
2023/03/14 12:23:41;;;;;;;7.88;3.83;;;;;;;;;;6212634;23;20004;-61
2023/03/14 12:26:18;;;;;;;7.97;3.78;;;;;;;;;;6212393;23;20274;-60
2023/03/14 12:28:52;;;;;;;7.57;3.60;;;;;;;;;;6212448;23;20379;-61
2023/03/14 12:31:30;;;;;;;7.60;3.83;;;;;;;;;;6212280;23;20005;-64
2023/03/14 12:34:11;;;;;;;7.30;3.50;;;;;;;;;;6212101;23;20004;-64
2023/03/14 12:36:50;;;;;;;7.47;3.60;;;;;;;;;;6212546;23;20009;-64
2023/03/14 12:39:23;;;;;;;7.35;3.97;;;;;;;;;;6213098;23;20012;-70
2023/03/14 12:41:52;;;;;;;9.00;3.75;;;;;;;;;;6212227;23;20328;-60
2023/03/14 12:44:44;;;;;;;7.82;4.07;;;;;;;;;;6212402;23;20051;-70
2023/03/14 12:47:20;;;;;;;8.82;3.78;;;;;;;;;;6209429;23;20451;-60
2023/03/14 12:49:50;;;;;;;7.05;3.95;;;;;;;;;;6212664;23;20013;-61
2023/03/14 12:52:21;;;;;;;8.02;3.75;;;;;;;;;;6211891;23;19997;-65
2023/03/14 12:55:06;;;;;;;9.10;4.68;;;;;;;;;;6209972;23;20004;-61
2023/03/14 12:57:35;;;;;;;8.65;4.28;;;;;;;;;;6212612;23;20449;-62
2023/03/14 13:00:06;;;;;;;9.32;5.20;;;;;;;;;;6211786;23;20009;-65
2023/03/14 13:02:43;;;;;;;11.48;4.68;;;;;;;;;;6212433;23;20004;-61
2023/03/14 13:05:15;;;;;;;8.95;4.28;;;;;;;;;;6212679;23;20035;-62
2023/03/14 13:07:44;;;;;;;8.80;4.32;;;;;;;;;;6212459;23;20001;-62
2023/03/14 13:10:10;;;;;;;12.55;4.50;;;;;;;;;;6212156;23;20023;-60
2023/03/14 13:12:42;;;;;;;9.00;3.92;;;;;;;;;;6212437;23;20004;-62
2023/03/14 13:15:08;;;;;;;;;;;;;;;;;;6212819;23;20005;-61
2023/03/14 13:17:34;;;;;;;10.00;5.03;;;;;;;;;;6212078;23;19910;-60
2023/03/14 13:20:02;;;;;;;10.10;4.20;;;;;;;;;;6212089;23;20017;-60
2023/03/14 13:22:30;;;;;;;7.63;3.80;;;;;;;;;;6212766;23;20077;-61
2023/03/14 13:25:04;;;;;;;9.13;4.50;;;;;;;;;;6212433;23;20005;-61
2023/03/14 13:27:32;;;;;;;10.52;4.07;;;;;;;;;;6212217;23;20005;-61
2023/03/14 13:29:58;;;;;;;11.55;4.82;;;;;;;;;;6212281;23;20013;-61
2023/03/14 13:32:28;;;;;;;9.23;4.30;;;;;;;;;;6212394;23;20012;-61
2023/03/14 13:34:58;;;;;;;8.30;4.20;;;;;;;;;;6212126;23;20038;-61
2023/03/14 13:37:25;;;;;;;9.30;4.78;;;;;;;;;;6212583;23;20429;-62
2023/03/14 13:39:52;;;;;;;10.27;4.47;;;;;;;;;;6211819;23;20079;-63
2023/03/14 13:42:19;;;;;;;10.43;4.20;;;;;;;;;;6212323;23;20004;-63
2023/03/14 13:44:45;;;;;;;7.95;3.80;;;;;;;;;;6212525;23;20005;-61
2023/03/14 13:47:18;;;;;;;8.07;3.58;;;;;;;;;;6212393;23;20004;-61
2023/03/14 13:49:45;;;;;;;10.73;3.83;;;;;;;;;;6211863;23;20020;-63
2023/03/14 13:52:30;;;;;;;6.68;3.90;;;;;;;;;;6212074;23;20130;-65
2023/03/14 13:54:57;;;;;;;7.97;4.10;;;;;;;;;;6211918;23;20004;-61
2023/03/14 13:57:23;;;;;;;14.45;4.85;;;;;;;;;;6212583;23;20425;-60
2023/03/14 14:00:00;;;;;;;7.60;4.25;;;;;;;;;;6211745;23;20027;-65
2023/03/14 14:02:27;;;;;;;9.20;3.90;;;;;;;;;;6184877;23;20803;-68
2023/03/14 14:04:53;;;;;;;7.72;4.32;;;;;;;;;;6211731;23;20320;-60
2023/03/14 14:07:19;;;;;;;8.88;4.20;;;;;;;;;;6211953;23;20005;-60
2023/03/14 14:09:50;;;;;;;6.82;3.50;;;;;;;;;;6211531;23;20008;-61
2023/03/14 14:12:24;;;;;;;10.55;4.15;;;;;;;;;;6212228;23;20079;-59
2023/03/14 14:15:06;;;;;;;9.07;4.32;;;;;;;;;;6211434;23;20012;-60
2023/03/14 14:17:35;;;;;;;7.85;4.07;;;;;;;;;;6212853;23;20015;-59
2023/03/14 14:20:04;;;;;;;9.52;3.90;;;;;;;;;;6192208;23;20020;-68
2023/03/14 14:22:30;;;;;;;7.07;3.92;;;;;;;;;;6213198;23;20004;-60
2023/03/14 14:24:56;;;;;;;7.05;3.75;;;;;;;;;;6213262;23;20001;-59
2023/03/14 14:27:31;;;;;;;12.85;4.28;;;;;;;;;;6213109;23;20008;-60
2023/03/14 14:29:58;;;;;;;12.52;4.07;;;;;;;;;;6212520;23;20016;-62
2023/03/14 14:32:24;;;;;;;9.23;4.15;;;;;;;;;;6213160;23;20039;-59
2023/03/14 14:34:58;;;;;;;11.20;4.00;;;;;;;;;;6213554;23;20032;-70
2023/03/14 14:37:25;;;;;;;10.18;4.28;;;;;;;;;;6212579;23;20087;-64
2023/03/14 14:39:52;;;;;;;12.68;5.05;;;;;;;;;;6212300;23;19997;-62